Aviation Digital Data Service (ADDS)

Output produced by METARs form (0030 UTC 20 August 2017)
found at http://aviationweather.gov/adds/metars/
 
KBDL 192333Z 2000/2106 26006KT P6SM FEW200 
     FM200300 VRB03KT P6SM BKN050 
     FM200400 00000KT 5SM -TSRA BR BKN050CB 
     FM200700 00000KT P6SM SCT250 
     FM201500 31010KT P6SM FEW250 
     FM202200 30006KT P6SM FEW250